sensor_id;sensor_type;location;lat;lon;timestamp;P1;durP1;ratioP1;P2;durP2;ratioP2
36377;SDS011;22402;42.746;23.606;2023-11-21T00:00:55;1.23;;;1.00;;
36377;SDS011;22402;42.746;23.606;2023-11-21T00:03:20;1.60;;;1.50;;
36377;SDS011;22402;42.746;23.606;2023-11-21T00:05:48;6.00;;;1.40;;
36377;SDS011;22402;42.746;23.606;2023-11-21T00:08:14;2.20;;;1.27;;
36377;SDS011;22402;42.746;23.606;2023-11-21T00:10:39;2.00;;;1.27;;
36377;SDS011;22402;42.746;23.606;2023-11-21T00:13:05;1.20;;;1.10;;
36377;SDS011;22402;42.746;23.606;2023-11-21T00:15:30;2.43;;;1.57;;
36377;SDS011;22402;42.746;23.606;2023-11-21T00:17:56;1.93;;;1.20;;
36377;SDS011;22402;42.746;23.606;2023-11-21T00:20:21;1.53;;;1.30;;
36377;SDS011;22402;42.746;23.606;2023-11-21T00:22:47;1.67;;;1.10;;
36377;SDS011;22402;42.746;23.606;2023-11-21T00:25:12;1.20;;;1.10;;
36377;SDS011;22402;42.746;23.606;2023-11-21T00:27:40;1.37;;;1.10;;
36377;SDS011;22402;42.746;23.606;2023-11-21T00:30:06;3.10;;;1.13;;
36377;SDS011;22402;42.746;23.606;2023-11-21T00:32:33;2.77;;;1.07;;
36377;SDS011;22402;42.746;23.606;2023-11-21T00:35:02;3.23;;;1.50;;
36377;SDS011;22402;42.746;23.606;2023-11-21T00:37:27;6.20;;;3.60;;
36377;SDS011;22402;42.746;23.606;2023-11-21T00:39:56;8.63;;;5.70;;
36377;SDS011;22402;42.746;23.606;2023-11-21T00:42:21;7.87;;;4.97;;
36377;SDS011;22402;42.746;23.606;2023-11-21T00:44:47;4.20;;;3.10;;
36377;SDS011;22402;42.746;23.606;2023-11-21T00:47:12;4.90;;;3.10;;
36377;SDS011;22402;42.746;23.606;2023-11-21T00:49:37;4.93;;;2.47;;
36377;SDS011;22402;42.746;23.606;2023-11-21T00:52:04;2.40;;;2.20;;
36377;SDS011;22402;42.746;23.606;2023-11-21T00:54:30;2.43;;;1.70;;
36377;SDS011;22402;42.746;23.606;2023-11-21T00:56:55;3.00;;;1.80;;
36377;SDS011;22402;42.746;23.606;2023-11-21T00:59:21;2.60;;;2.13;;
36377;SDS011;22402;42.746;23.606;2023-11-21T01:01:48;2.83;;;1.80;;
36377;SDS011;22402;42.746;23.606;2023-11-21T01:04:13;1.23;;;1.10;;
36377;SDS011;22402;42.746;23.606;2023-11-21T01:06:39;2.50;;;1.37;;
36377;SDS011;22402;42.746;23.606;2023-11-21T01:09:04;1.93;;;1.37;;
36377;SDS011;22402;42.746;23.606;2023-11-21T01:11:34;1.53;;;1.30;;
36377;SDS011;22402;42.746;23.606;2023-11-21T01:14:01;2.20;;;1.50;;
36377;SDS011;22402;42.746;23.606;2023-11-21T01:16:28;5.33;;;2.47;;
36377;SDS011;22402;42.746;23.606;2023-11-21T01:18:53;7.77;;;3.83;;
36377;SDS011;22402;42.746;23.606;2023-11-21T01:21:19;6.10;;;3.57;;
36377;SDS011;22402;42.746;23.606;2023-11-21T01:23:44;4.40;;;2.57;;
36377;SDS011;22402;42.746;23.606;2023-11-21T01:26:10;6.07;;;3.57;;
36377;SDS011;22402;42.746;23.606;2023-11-21T01:28:35;5.90;;;2.43;;
36377;SDS011;22402;42.746;23.606;2023-11-21T01:31:01;4.50;;;2.53;;
36377;SDS011;22402;42.746;23.606;2023-11-21T01:33:26;3.93;;;2.00;;
36377;SDS011;22402;42.746;23.606;2023-11-21T01:35:52;4.43;;;2.17;;
36377;SDS011;22402;42.746;23.606;2023-11-21T01:38:21;2.13;;;1.93;;
36377;SDS011;22402;42.746;23.606;2023-11-21T01:40:47;2.30;;;2.10;;
36377;SDS011;22402;42.746;23.606;2023-11-21T01:43:12;4.20;;;2.63;;
36377;SDS011;22402;42.746;23.606;2023-11-21T01:45:38;3.77;;;2.70;;
36377;SDS011;22402;42.746;23.606;2023-11-21T01:48:04;4.03;;;2.90;;
36377;SDS011;22402;42.746;23.606;2023-11-21T01:50:31;3.60;;;2.37;;
36377;SDS011;22402;42.746;23.606;2023-11-21T01:52:58;5.20;;;2.83;;
36377;SDS011;22402;42.746;23.606;2023-11-21T01:55:25;7.53;;;4.00;;
36377;SDS011;22402;42.746;23.606;2023-11-21T01:57:52;4.47;;;3.70;;
36377;SDS011;22402;42.746;23.606;2023-11-21T02:00:18;6.37;;;4.10;;
36377;SDS011;22402;42.746;23.606;2023-11-21T02:02:49;4.13;;;3.73;;
36377;SDS011;22402;42.746;23.606;2023-11-21T02:05:16;9.20;;;4.63;;
36377;SDS011;22402;42.746;23.606;2023-11-21T02:07:43;3.80;;;3.00;;
36377;SDS011;22402;42.746;23.606;2023-11-21T02:10:09;5.03;;;3.63;;
36377;SDS011;22402;42.746;23.606;2023-11-21T02:12:39;6.10;;;4.63;;
36377;SDS011;22402;42.746;23.606;2023-11-21T02:15:06;3.70;;;3.40;;
36377;SDS011;22402;42.746;23.606;2023-11-21T02:17:39;6.33;;;2.90;;
36377;SDS011;22402;42.746;23.606;2023-11-21T02:20:09;3.53;;;2.70;;
36377;SDS011;22402;42.746;23.606;2023-11-21T02:22:42;3.20;;;2.00;;
36377;SDS011;22402;42.746;23.606;2023-11-21T02:25:09;2.07;;;1.87;;
36377;SDS011;22402;42.746;23.606;2023-11-21T02:27:34;3.20;;;2.10;;
36377;SDS011;22402;42.746;23.606;2023-11-21T02:30:00;2.67;;;1.73;;
36377;SDS011;22402;42.746;23.606;2023-11-21T02:32:26;3.57;;;1.43;;
36377;SDS011;22402;42.746;23.606;2023-11-21T02:34:52;2.43;;;2.00;;
36377;SDS011;22402;42.746;23.606;2023-11-21T02:37:20;3.17;;;2.50;;
36377;SDS011;22402;42.746;23.606;2023-11-21T02:39:46;2.03;;;1.70;;
36377;SDS011;22402;42.746;23.606;2023-11-21T02:42:12;7.63;;;2.20;;
36377;SDS011;22402;42.746;23.606;2023-11-21T02:44:38;2.50;;;2.00;;
36377;SDS011;22402;42.746;23.606;2023-11-21T02:47:03;2.10;;;1.87;;
36377;SDS011;22402;42.746;23.606;2023-11-21T02:49:29;7.13;;;2.20;;
36377;SDS011;22402;42.746;23.606;2023-11-21T02:51:55;3.07;;;1.90;;
36377;SDS011;22402;42.746;23.606;2023-11-21T02:54:21;4.00;;;2.30;;
36377;SDS011;22402;42.746;23.606;2023-11-21T02:56:47;5.70;;;2.50;;
36377;SDS011;22402;42.746;23.606;2023-11-21T02:59:14;2.50;;;2.07;;
36377;SDS011;22402;42.746;23.606;2023-11-21T03:01:40;2.47;;;1.80;;
36377;SDS011;22402;42.746;23.606;2023-11-21T03:04:06;2.97;;;1.87;;
36377;SDS011;22402;42.746;23.606;2023-11-21T03:06:32;4.87;;;2.70;;
36377;SDS011;22402;42.746;23.606;2023-11-21T03:08:57;5.37;;;2.80;;
36377;SDS011;22402;42.746;23.606;2023-11-21T03:11:23;2.83;;;2.53;;
36377;SDS011;22402;42.746;23.606;2023-11-21T03:13:48;3.63;;;3.10;;
36377;SDS011;22402;42.746;23.606;2023-11-21T03:16:15;7.33;;;3.20;;
36377;SDS011;22402;42.746;23.606;2023-11-21T03:18:41;4.43;;;2.60;;
36377;SDS011;22402;42.746;23.606;2023-11-21T03:21:06;3.60;;;2.80;;
36377;SDS011;22402;42.746;23.606;2023-11-21T03:23:35;7.93;;;2.90;;
36377;SDS011;22402;42.746;23.606;2023-11-21T03:26:01;5.00;;;4.30;;
36377;SDS011;22402;42.746;23.606;2023-11-21T03:28:27;8.03;;;5.40;;
36377;SDS011;22402;42.746;23.606;2023-11-21T03:30:53;6.60;;;4.70;;
36377;SDS011;22402;42.746;23.606;2023-11-21T03:33:20;5.33;;;4.07;;
36377;SDS011;22402;42.746;23.606;2023-11-21T03:35:45;5.23;;;4.20;;
36377;SDS011;22402;42.746;23.606;2023-11-21T03:38:11;4.17;;;3.40;;
36377;SDS011;22402;42.746;23.606;2023-11-21T03:40:37;6.20;;;3.63;;
36377;SDS011;22402;42.746;23.606;2023-11-21T03:43:04;7.13;;;5.33;;
36377;SDS011;22402;42.746;23.606;2023-11-21T03:48:06;21.03;;;7.00;;
36377;SDS011;22402;42.746;23.606;2023-11-21T03:50:32;6.07;;;4.90;;
36377;SDS011;22402;42.746;23.606;2023-11-21T03:52:57;3.20;;;2.77;;
36377;SDS011;22402;42.746;23.606;2023-11-21T03:55:23;4.20;;;2.33;;
36377;SDS011;22402;42.746;23.606;2023-11-21T03:57:51;3.60;;;2.10;;
36377;SDS011;22402;42.746;23.606;2023-11-21T04:00:17;3.07;;;2.20;;
36377;SDS011;22402;42.746;23.606;2023-11-21T04:02:46;1.50;;;1.40;;
36377;SDS011;22402;42.746;23.606;2023-11-21T04:05:11;2.73;;;1.67;;
36377;SDS011;22402;42.746;23.606;2023-11-21T04:07:37;2.30;;;2.10;;
36377;SDS011;22402;42.746;23.606;2023-11-21T04:10:03;4.20;;;2.03;;
36377;SDS011;22402;42.746;23.606;2023-11-21T04:12:32;2.30;;;1.67;;
36377;SDS011;22402;42.746;23.606;2023-11-21T04:14:57;1.83;;;1.53;;
36377;SDS011;22402;42.746;23.606;2023-11-21T04:17:23;3.17;;;2.00;;
36377;SDS011;22402;42.746;23.606;2023-11-21T04:19:49;2.73;;;1.90;;
36377;SDS011;22402;42.746;23.606;2023-11-21T04:22:14;5.00;;;2.50;;
36377;SDS011;22402;42.746;23.606;2023-11-21T04:29:50;1.80;;;1.63;;
36377;SDS011;22402;42.746;23.606;2023-11-21T04:32:18;1.70;;;1.37;;
36377;SDS011;22402;42.746;23.606;2023-11-21T04:37:22;2.90;;;1.80;;
36377;SDS011;22402;42.746;23.606;2023-11-21T04:39:47;2.73;;;1.80;;
36377;SDS011;22402;42.746;23.606;2023-11-21T04:44:48;2.43;;;2.23;;
36377;SDS011;22402;42.746;23.606;2023-11-21T04:47:14;3.60;;;2.43;;
36377;SDS011;22402;42.746;23.606;2023-11-21T04:49:42;2.93;;;2.37;;
36377;SDS011;22402;42.746;23.606;2023-11-21T04:52:08;2.73;;;1.93;;
36377;SDS011;22402;42.746;23.606;2023-11-21T04:54:35;2.57;;;1.73;;
36377;SDS011;22402;42.746;23.606;2023-11-21T04:57:00;9.87;;;4.67;;
36377;SDS011;22402;42.746;23.606;2023-11-21T04:59:26;12.80;;;5.80;;
36377;SDS011;22402;42.746;23.606;2023-11-21T05:01:53;9.20;;;3.80;;
36377;SDS011;22402;42.746;23.606;2023-11-21T05:04:19;6.87;;;3.70;;
36377;SDS011;22402;42.746;23.606;2023-11-21T05:06:45;5.77;;;3.50;;
36377;SDS011;22402;42.746;23.606;2023-11-21T05:09:11;5.40;;;3.00;;
36377;SDS011;22402;42.746;23.606;2023-11-21T05:14:12;3.90;;;2.40;;
36377;SDS011;22402;42.746;23.606;2023-11-21T05:16:39;4.93;;;2.17;;
36377;SDS011;22402;42.746;23.606;2023-11-21T05:19:04;6.07;;;2.90;;
36377;SDS011;22402;42.746;23.606;2023-11-21T05:21:31;16.83;;;6.57;;
36377;SDS011;22402;42.746;23.606;2023-11-21T05:26:36;11.60;;;6.00;;
36377;SDS011;22402;42.746;23.606;2023-11-21T05:31:36;5.60;;;3.00;;
36377;SDS011;22402;42.746;23.606;2023-11-21T05:34:03;2.67;;;2.10;;
36377;SDS011;22402;42.746;23.606;2023-11-21T05:36:30;4.23;;;2.23;;
36377;SDS011;22402;42.746;23.606;2023-11-21T05:38:55;4.10;;;2.80;;
36377;SDS011;22402;42.746;23.606;2023-11-21T05:41:21;3.23;;;2.50;;
36377;SDS011;22402;42.746;23.606;2023-11-21T05:48:57;2.60;;;2.17;;
36377;SDS011;22402;42.746;23.606;2023-11-21T05:51:22;4.23;;;3.83;;
36377;SDS011;22402;42.746;23.606;2023-11-21T05:53:48;3.13;;;2.87;;
36377;SDS011;22402;42.746;23.606;2023-11-21T05:56:13;4.50;;;3.00;;
36377;SDS011;22402;42.746;23.606;2023-11-21T05:58:40;3.40;;;2.80;;
36377;SDS011;22402;42.746;23.606;2023-11-21T06:01:05;3.13;;;2.43;;
36377;SDS011;22402;42.746;23.606;2023-11-21T06:03:34;1.97;;;1.73;;
36377;SDS011;22402;42.746;23.606;2023-11-21T06:05:59;2.60;;;2.40;;
36377;SDS011;22402;42.746;23.606;2023-11-21T06:08:25;3.60;;;3.00;;
36377;SDS011;22402;42.746;23.606;2023-11-21T06:10:53;3.40;;;2.30;;
36377;SDS011;22402;42.746;23.606;2023-11-21T06:13:18;3.90;;;2.10;;
36377;SDS011;22402;42.746;23.606;2023-11-21T06:15:49;2.70;;;2.33;;
36377;SDS011;22402;42.746;23.606;2023-11-21T06:18:16;2.93;;;2.70;;
36377;SDS011;22402;42.746;23.606;2023-11-21T06:20:44;3.27;;;2.33;;
36377;SDS011;22402;42.746;23.606;2023-11-21T06:23:10;5.20;;;3.30;;
36377;SDS011;22402;42.746;23.606;2023-11-21T06:25:36;3.37;;;3.07;;
36377;SDS011;22402;42.746;23.606;2023-11-21T06:28:01;3.80;;;2.87;;
36377;SDS011;22402;42.746;23.606;2023-11-21T06:30:27;4.10;;;3.80;;
36377;SDS011;22402;42.746;23.606;2023-11-21T06:32:54;4.47;;;4.00;;
36377;SDS011;22402;42.746;23.606;2023-11-21T06:35:21;5.50;;;5.00;;
36377;SDS011;22402;42.746;23.606;2023-11-21T06:40:21;6.50;;;4.50;;
36377;SDS011;22402;42.746;23.606;2023-11-21T06:42:47;8.00;;;5.40;;
36377;SDS011;22402;42.746;23.606;2023-11-21T06:45:13;6.70;;;6.07;;
36377;SDS011;22402;42.746;23.606;2023-11-21T06:47:40;7.90;;;6.20;;
36377;SDS011;22402;42.746;23.606;2023-11-21T06:52:36;5.23;;;4.53;;
36377;SDS011;22402;42.746;23.606;2023-11-21T06:55:02;4.33;;;3.10;;
36377;SDS011;22402;42.746;23.606;2023-11-21T06:57:28;5.00;;;3.67;;
36377;SDS011;22402;42.746;23.606;2023-11-21T06:59:53;7.23;;;3.90;;
36377;SDS011;22402;42.746;23.606;2023-11-21T07:02:19;5.27;;;3.87;;
36377;SDS011;22402;42.746;23.606;2023-11-21T07:07:19;6.13;;;4.70;;
36377;SDS011;22402;42.746;23.606;2023-11-21T07:09:45;7.40;;;5.50;;
36377;SDS011;22402;42.746;23.606;2023-11-21T07:12:10;7.93;;;6.40;;
36377;SDS011;22402;42.746;23.606;2023-11-21T07:17:11;9.17;;;6.50;;
36377;SDS011;22402;42.746;23.606;2023-11-21T07:19:37;8.97;;;5.97;;
36377;SDS011;22402;42.746;23.606;2023-11-21T07:22:03;7.47;;;4.57;;
36377;SDS011;22402;42.746;23.606;2023-11-21T07:24:31;7.10;;;4.60;;
36377;SDS011;22402;42.746;23.606;2023-11-21T07:26:57;9.60;;;5.00;;
36377;SDS011;22402;42.746;23.606;2023-11-21T07:29:23;6.40;;;4.60;;
36377;SDS011;22402;42.746;23.606;2023-11-21T07:31:54;6.37;;;4.27;;
36377;SDS011;22402;42.746;23.606;2023-11-21T07:34:20;5.00;;;3.70;;
36377;SDS011;22402;42.746;23.606;2023-11-21T07:36:46;4.30;;;3.40;;
36377;SDS011;22402;42.746;23.606;2023-11-21T07:39:12;6.53;;;3.20;;
36377;SDS011;22402;42.746;23.606;2023-11-21T07:41:38;4.50;;;2.90;;
36377;SDS011;22402;42.746;23.606;2023-11-21T07:44:10;3.30;;;2.93;;
36377;SDS011;22402;42.746;23.606;2023-11-21T07:46:35;3.87;;;3.00;;
36377;SDS011;22402;42.746;23.606;2023-11-21T07:49:01;4.40;;;3.20;;
36377;SDS011;22402;42.746;23.606;2023-11-21T07:51:26;7.50;;;3.47;;
36377;SDS011;22402;42.746;23.606;2023-11-21T07:53:51;6.20;;;3.87;;
36377;SDS011;22402;42.746;23.606;2023-11-21T07:56:17;6.17;;;2.90;;
36377;SDS011;22402;42.746;23.606;2023-11-21T07:58:42;4.63;;;3.50;;
36377;SDS011;22402;42.746;23.606;2023-11-21T08:01:09;5.93;;;3.90;;
36377;SDS011;22402;42.746;23.606;2023-11-21T08:03:35;5.47;;;4.20;;
36377;SDS011;22402;42.746;23.606;2023-11-21T08:06:00;7.40;;;4.37;;
36377;SDS011;22402;42.746;23.606;2023-11-21T08:08:28;6.23;;;4.63;;
36377;SDS011;22402;42.746;23.606;2023-11-21T08:10:54;7.73;;;4.23;;
36377;SDS011;22402;42.746;23.606;2023-11-21T08:13:26;10.63;;;4.83;;
36377;SDS011;22402;42.746;23.606;2023-11-21T08:15:55;10.70;;;6.17;;
36377;SDS011;22402;42.746;23.606;2023-11-21T08:18:21;10.97;;;6.47;;
36377;SDS011;22402;42.746;23.606;2023-11-21T08:20:47;11.00;;;6.40;;
36377;SDS011;22402;42.746;23.606;2023-11-21T08:23:16;9.10;;;6.50;;
36377;SDS011;22402;42.746;23.606;2023-11-21T08:25:43;13.90;;;7.40;;
36377;SDS011;22402;42.746;23.606;2023-11-21T08:28:09;9.33;;;7.40;;
36377;SDS011;22402;42.746;23.606;2023-11-21T08:30:35;9.27;;;7.13;;
36377;SDS011;22402;42.746;23.606;2023-11-21T08:33:00;13.70;;;8.10;;
36377;SDS011;22402;42.746;23.606;2023-11-21T08:35:26;9.50;;;7.30;;
36377;SDS011;22402;42.746;23.606;2023-11-21T08:37:51;12.80;;;8.53;;
36377;SDS011;22402;42.746;23.606;2023-11-21T08:40:20;16.23;;;7.93;;
36377;SDS011;22402;42.746;23.606;2023-11-21T08:42:49;14.30;;;8.57;;
36377;SDS011;22402;42.746;23.606;2023-11-21T08:45:16;22.97;;;13.77;;
36377;SDS011;22402;42.746;23.606;2023-11-21T08:47:42;23.10;;;15.10;;
36377;SDS011;22402;42.746;23.606;2023-11-21T08:50:09;17.53;;;13.23;;
36377;SDS011;22402;42.746;23.606;2023-11-21T08:52:37;18.10;;;12.80;;
36377;SDS011;22402;42.746;23.606;2023-11-21T08:55:06;14.30;;;10.07;;
36377;SDS011;22402;42.746;23.606;2023-11-21T08:57:36;15.10;;;10.40;;
36377;SDS011;22402;42.746;23.606;2023-11-21T09:00:06;17.93;;;9.63;;
36377;SDS011;22402;42.746;23.606;2023-11-21T09:02:36;13.00;;;8.23;;
36377;SDS011;22402;42.746;23.606;2023-11-21T09:05:03;12.50;;;8.00;;
36377;SDS011;22402;42.746;23.606;2023-11-21T09:07:29;9.83;;;7.40;;
36377;SDS011;22402;42.746;23.606;2023-11-21T09:09:55;9.50;;;7.77;;
36377;SDS011;22402;42.746;23.606;2023-11-21T09:12:22;10.77;;;7.77;;
36377;SDS011;22402;42.746;23.606;2023-11-21T09:14:49;11.80;;;7.97;;
36377;SDS011;22402;42.746;23.606;2023-11-21T09:17:16;14.83;;;9.07;;
36377;SDS011;22402;42.746;23.606;2023-11-21T09:19:44;12.00;;;7.67;;
36377;SDS011;22402;42.746;23.606;2023-11-21T09:24:49;10.53;;;7.30;;
36377;SDS011;22402;42.746;23.606;2023-11-21T09:27:15;10.07;;;7.30;;
36377;SDS011;22402;42.746;23.606;2023-11-21T09:29:42;11.83;;;6.20;;
36377;SDS011;22402;42.746;23.606;2023-11-21T09:32:10;11.60;;;6.37;;
36377;SDS011;22402;42.746;23.606;2023-11-21T09:34:39;12.70;;;8.40;;
36377;SDS011;22402;42.746;23.606;2023-11-21T09:37:05;12.70;;;7.90;;
36377;SDS011;22402;42.746;23.606;2023-11-21T09:39:34;9.50;;;6.50;;
36377;SDS011;22402;42.746;23.606;2023-11-21T09:42:13;9.30;;;7.27;;
36377;SDS011;22402;42.746;23.606;2023-11-21T09:47:46;10.13;;;7.00;;
36377;SDS011;22402;42.746;23.606;2023-11-21T09:50:12;10.33;;;7.00;;
36377;SDS011;22402;42.746;23.606;2023-11-21T09:52:57;9.63;;;6.43;;
36377;SDS011;22402;42.746;23.606;2023-11-21T09:58:10;10.97;;;6.60;;
36377;SDS011;22402;42.746;23.606;2023-11-21T10:00:40;9.23;;;6.50;;
36377;SDS011;22402;42.746;23.606;2023-11-21T10:03:07;7.90;;;5.17;;
36377;SDS011;22402;42.746;23.606;2023-11-21T10:05:33;6.30;;;5.00;;
36377;SDS011;22402;42.746;23.606;2023-11-21T10:07:59;4.53;;;3.67;;
36377;SDS011;22402;42.746;23.606;2023-11-21T10:10:26;4.30;;;2.97;;
36377;SDS011;22402;42.746;23.606;2023-11-21T10:12:56;5.57;;;2.73;;
36377;SDS011;22402;42.746;23.606;2023-11-21T10:15:27;5.90;;;2.90;;
36377;SDS011;22402;42.746;23.606;2023-11-21T10:17:54;4.60;;;2.40;;
36377;SDS011;22402;42.746;23.606;2023-11-21T10:20:20;2.83;;;2.27;;
36377;SDS011;22402;42.746;23.606;2023-11-21T10:22:48;3.90;;;2.60;;
36377;SDS011;22402;42.746;23.606;2023-11-21T10:25:13;4.00;;;2.63;;
36377;SDS011;22402;42.746;23.606;2023-11-21T10:27:39;2.17;;;1.63;;
36377;SDS011;22402;42.746;23.606;2023-11-21T10:30:06;1.53;;;1.40;;
36377;SDS011;22402;42.746;23.606;2023-11-21T10:32:34;2.33;;;1.47;;
36377;SDS011;22402;42.746;23.606;2023-11-21T10:35:00;1.50;;;1.40;;
36377;SDS011;22402;42.746;23.606;2023-11-21T10:37:27;1.47;;;1.37;;
36377;SDS011;22402;42.746;23.606;2023-11-21T10:40:02;3.37;;;1.43;;
36377;SDS011;22402;42.746;23.606;2023-11-21T10:42:31;3.27;;;2.47;;
36377;SDS011;22402;42.746;23.606;2023-11-21T10:44:57;3.33;;;2.50;;
36377;SDS011;22402;42.746;23.606;2023-11-21T10:47:23;5.67;;;3.00;;
36377;SDS011;22402;42.746;23.606;2023-11-21T10:49:52;5.40;;;3.20;;
36377;SDS011;22402;42.746;23.606;2023-11-21T10:52:20;6.90;;;3.50;;
36377;SDS011;22402;42.746;23.606;2023-11-21T10:54:46;5.30;;;3.60;;
36377;SDS011;22402;42.746;23.606;2023-11-21T10:57:13;5.03;;;3.57;;
36377;SDS011;22402;42.746;23.606;2023-11-21T10:59:42;5.20;;;3.33;;
36377;SDS011;22402;42.746;23.606;2023-11-21T11:02:25;3.87;;;3.13;;
36377;SDS011;22402;42.746;23.606;2023-11-21T11:04:53;5.73;;;3.90;;
36377;SDS011;22402;42.746;23.606;2023-11-21T11:07:26;5.00;;;4.43;;
36377;SDS011;22402;42.746;23.606;2023-11-21T11:09:55;7.03;;;4.33;;
36377;SDS011;22402;42.746;23.606;2023-11-21T11:12:21;6.80;;;4.60;;
36377;SDS011;22402;42.746;23.606;2023-11-21T11:14:47;5.53;;;3.93;;
36377;SDS011;22402;42.746;23.606;2023-11-21T11:17:14;5.63;;;4.00;;
36377;SDS011;22402;42.746;23.606;2023-11-21T11:19:39;7.43;;;4.30;;
36377;SDS011;22402;42.746;23.606;2023-11-21T11:22:08;4.80;;;4.30;;
36377;SDS011;22402;42.746;23.606;2023-11-21T11:30:41;6.60;;;5.90;;
36377;SDS011;22402;42.746;23.606;2023-11-21T11:33:39;11.23;;;6.60;;
36377;SDS011;22402;42.746;23.606;2023-11-21T11:36:10;7.40;;;5.43;;
36377;SDS011;22402;42.746;23.606;2023-11-21T11:38:45;11.70;;;6.50;;
36377;SDS011;22402;42.746;23.606;2023-11-21T11:41:11;10.03;;;7.33;;
36377;SDS011;22402;42.746;23.606;2023-11-21T11:43:37;8.50;;;6.57;;
36377;SDS011;22402;42.746;23.606;2023-11-21T11:46:09;7.53;;;6.23;;
36377;SDS011;22402;42.746;23.606;2023-11-21T11:48:40;10.53;;;7.07;;
36377;SDS011;22402;42.746;23.606;2023-11-21T11:51:12;11.83;;;7.30;;
36377;SDS011;22402;42.746;23.606;2023-11-21T11:53:42;12.57;;;8.77;;
36377;SDS011;22402;42.746;23.606;2023-11-21T11:58:59;12.03;;;9.07;;
36377;SDS011;22402;42.746;23.606;2023-11-21T12:01:27;15.47;;;7.97;;
36377;SDS011;22402;42.746;23.606;2023-11-21T12:04:27;13.23;;;7.30;;
36377;SDS011;22402;42.746;23.606;2023-11-21T12:06:47;12.20;;;7.50;;
36377;SDS011;22402;42.746;23.606;2023-11-21T12:09:22;13.60;;;7.23;;
36377;SDS011;22402;42.746;23.606;2023-11-21T12:11:49;13.10;;;7.00;;
36377;SDS011;22402;42.746;23.606;2023-11-21T12:14:16;13.17;;;7.87;;
36377;SDS011;22402;42.746;23.606;2023-11-21T12:16:42;16.30;;;8.53;;
36377;SDS011;22402;42.746;23.606;2023-11-21T12:19:08;17.53;;;8.80;;
36377;SDS011;22402;42.746;23.606;2023-11-21T12:21:35;18.17;;;9.17;;
36377;SDS011;22402;42.746;23.606;2023-11-21T12:24:01;17.23;;;11.00;;
36377;SDS011;22402;42.746;23.606;2023-11-21T12:26:28;17.00;;;11.13;;
36377;SDS011;22402;42.746;23.606;2023-11-21T12:28:53;15.03;;;10.17;;
36377;SDS011;22402;42.746;23.606;2023-11-21T12:31:22;18.10;;;11.97;;
36377;SDS011;22402;42.746;23.606;2023-11-21T12:33:48;21.20;;;12.30;;
36377;SDS011;22402;42.746;23.606;2023-11-21T12:36:15;17.57;;;12.00;;
36377;SDS011;22402;42.746;23.606;2023-11-21T12:38:41;17.20;;;12.30;;
36377;SDS011;22402;42.746;23.606;2023-11-21T12:41:07;21.10;;;13.17;;
36377;SDS011;22402;42.746;23.606;2023-11-21T12:43:33;23.07;;;13.53;;
36377;SDS011;22402;42.746;23.606;2023-11-21T12:46:10;20.83;;;13.40;;
36377;SDS011;22402;42.746;23.606;2023-11-21T12:48:39;22.67;;;13.90;;
36377;SDS011;22402;42.746;23.606;2023-11-21T12:51:07;24.70;;;14.63;;
36377;SDS011;22402;42.746;23.606;2023-11-21T12:53:34;22.90;;;15.53;;
36377;SDS011;22402;42.746;23.606;2023-11-21T12:56:07;27.20;;;15.30;;
36377;SDS011;22402;42.746;23.606;2023-11-21T12:58:36;28.43;;;15.97;;
36377;SDS011;22402;42.746;23.606;2023-11-21T13:01:04;24.50;;;15.90;;
36377;SDS011;22402;42.746;23.606;2023-11-21T13:03:36;25.93;;;16.30;;
36377;SDS011;22402;42.746;23.606;2023-11-21T13:06:03;26.20;;;16.40;;
36377;SDS011;22402;42.746;23.606;2023-11-21T13:08:30;23.93;;;14.80;;
36377;SDS011;22402;42.746;23.606;2023-11-21T13:10:56;19.20;;;13.90;;
36377;SDS011;22402;42.746;23.606;2023-11-21T13:13:23;17.63;;;12.00;;
36377;SDS011;22402;42.746;23.606;2023-11-21T13:15:50;15.40;;;10.97;;
36377;SDS011;22402;42.746;23.606;2023-11-21T13:18:17;17.53;;;10.77;;
36377;SDS011;22402;42.746;23.606;2023-11-21T13:20:43;17.07;;;10.23;;
36377;SDS011;22402;42.746;23.606;2023-11-21T13:23:10;13.07;;;8.37;;
36377;SDS011;22402;42.746;23.606;2023-11-21T13:25:41;10.37;;;7.80;;
36377;SDS011;22402;42.746;23.606;2023-11-21T13:28:07;11.30;;;6.87;;
36377;SDS011;22402;42.746;23.606;2023-11-21T13:30:35;8.43;;;7.10;;
36377;SDS011;22402;42.746;23.606;2023-11-21T13:33:03;7.30;;;5.70;;
36377;SDS011;22402;42.746;23.606;2023-11-21T13:35:33;7.87;;;5.80;;
36377;SDS011;22402;42.746;23.606;2023-11-21T13:38:13;7.10;;;5.17;;
36377;SDS011;22402;42.746;23.606;2023-11-21T13:40:42;6.90;;;4.60;;
36377;SDS011;22402;42.746;23.606;2023-11-21T13:43:16;5.07;;;3.93;;
36377;SDS011;22402;42.746;23.606;2023-11-21T13:45:47;4.67;;;3.23;;
36377;SDS011;22402;42.746;23.606;2023-11-21T13:48:19;4.50;;;3.47;;
36377;SDS011;22402;42.746;23.606;2023-11-21T13:50:50;5.97;;;4.53;;
36377;SDS011;22402;42.746;23.606;2023-11-21T13:53:35;13.30;;;8.60;;
36377;SDS011;22402;42.746;23.606;2023-11-21T13:56:04;14.60;;;10.77;;
36377;SDS011;22402;42.746;23.606;2023-11-21T13:58:30;20.40;;;13.73;;
36377;SDS011;22402;42.746;23.606;2023-11-21T14:01:14;27.33;;;17.47;;
36377;SDS011;22402;42.746;23.606;2023-11-21T14:03:54;28.53;;;18.60;;
36377;SDS011;22402;42.746;23.606;2023-11-21T14:06:33;23.80;;;16.50;;
36377;SDS011;22402;42.746;23.606;2023-11-21T14:09:05;24.07;;;16.00;;
36377;SDS011;22402;42.746;23.606;2023-11-21T14:11:31;22.20;;;16.70;;
36377;SDS011;22402;42.746;23.606;2023-11-21T14:13:57;22.83;;;15.80;;
36377;SDS011;22402;42.746;23.606;2023-11-21T14:16:24;20.93;;;15.80;;
36377;SDS011;22402;42.746;23.606;2023-11-21T14:18:50;23.60;;;15.37;;
36377;SDS011;22402;42.746;23.606;2023-11-21T14:21:23;20.17;;;15.00;;
36377;SDS011;22402;42.746;23.606;2023-11-21T14:23:52;21.00;;;14.57;;
36377;SDS011;22402;42.746;23.606;2023-11-21T14:26:20;20.30;;;14.47;;
36377;SDS011;22402;42.746;23.606;2023-11-21T14:31:16;24.63;;;16.27;;
36377;SDS011;22402;42.746;23.606;2023-11-21T14:33:42;23.60;;;15.07;;
36377;SDS011;22402;42.746;23.606;2023-11-21T14:36:09;20.03;;;14.30;;
36377;SDS011;22402;42.746;23.606;2023-11-21T14:38:35;21.00;;;14.97;;
36377;SDS011;22402;42.746;23.606;2023-11-21T14:41:02;28.03;;;16.77;;
36377;SDS011;22402;42.746;23.606;2023-11-21T14:43:28;28.73;;;16.60;;
36377;SDS011;22402;42.746;23.606;2023-11-21T14:45:59;27.03;;;17.83;;
36377;SDS011;22402;42.746;23.606;2023-11-21T14:48:24;30.40;;;18.67;;
36377;SDS011;22402;42.746;23.606;2023-11-21T14:51:08;24.20;;;16.73;;
36377;SDS011;22402;42.746;23.606;2023-11-21T14:53:52;33.53;;;19.63;;
36377;SDS011;22402;42.746;23.606;2023-11-21T14:56:26;29.20;;;19.70;;
36377;SDS011;22402;42.746;23.606;2023-11-21T14:58:56;29.30;;;20.13;;
36377;SDS011;22402;42.746;23.606;2023-11-21T15:01:23;35.67;;;22.23;;
36377;SDS011;22402;42.746;23.606;2023-11-21T15:04:09;34.30;;;21.80;;
36377;SDS011;22402;42.746;23.606;2023-11-21T15:06:46;30.53;;;20.53;;
36377;SDS011;22402;42.746;23.606;2023-11-21T15:09:13;23.87;;;17.77;;
36377;SDS011;22402;42.746;23.606;2023-11-21T15:11:39;28.43;;;18.17;;
36377;SDS011;22402;42.746;23.606;2023-11-21T15:14:04;22.97;;;14.77;;
36377;SDS011;22402;42.746;23.606;2023-11-21T15:16:35;16.20;;;11.60;;
36377;SDS011;22402;42.746;23.606;2023-11-21T15:19:10;18.83;;;10.47;;
36377;SDS011;22402;42.746;23.606;2023-11-21T15:21:42;13.57;;;8.53;;
36377;SDS011;22402;42.746;23.606;2023-11-21T15:24:09;10.50;;;7.90;;
36377;SDS011;22402;42.746;23.606;2023-11-21T15:26:36;7.63;;;6.03;;